Time;durP1;ratioP1;P1;durP2;ratioP2;P2;SDS_P1;SDS_P2;PMS_P1;PMS_P2;Temp;Humidity;BMP_temperature;BMP_pressure;BME280_temperature;BME280_humidity;BME280_pressure;Samples;Min_cycle;Max_cycle;Signal;HPM_P1;HPM_P2
2022/09/10 00:01:16;;;;;;;3.60;3.27;;;15.40;1.00;;;;;;6263494;28;20380;-54
2022/09/10 00:04:19;;;;;;;4.70;3.07;;;15.30;1.00;;;;;;6271628;28;20241;-55
2022/09/10 00:07:22;;;;;;;3.33;3.23;;;15.30;1.00;;;;;;6285182;28;20237;-53
2022/09/10 00:10:25;;;;;;;3.57;3.30;;;15.30;1.00;;;;;;6285416;28;20740;-55
2022/09/10 00:13:28;;;;;;;3.17;3.03;;;15.30;1.00;;;;;;6266627;28;20230;-55
2022/09/10 00:16:34;;;;;;;3.30;3.10;;;15.30;1.00;;;;;;6282743;28;20412;-55
2022/09/10 00:19:37;;;;;;;4.10;3.70;;;15.20;1.00;;;;;;6282690;28;20314;-55
2022/09/10 00:22:40;;;;;;;3.47;3.37;;;15.20;1.00;;;;;;6281808;28;20804;-55
2022/09/10 00:25:43;;;;;;;4.50;4.30;;;15.20;1.00;;;;;;6285792;28;20237;-55
2022/09/10 00:28:47;;;;;;;3.60;3.50;;;15.10;1.00;;;;;;6284070;28;20245;-54
2022/09/10 00:31:53;;;;;;;3.90;3.70;;;15.10;1.00;;;;;;6260362;28;20614;-54
2022/09/10 00:35:00;;;;;;;4.30;4.03;;;15.10;1.00;;;;;;6275293;28;20598;-55
2022/09/10 00:38:04;;;;;;;4.40;4.20;;;15.10;1.00;;;;;;6284142;28;20290;-54
2022/09/10 00:41:08;;;;;;;4.53;4.33;;;15.10;1.00;;;;;;6260754;28;20234;-54
2022/09/10 00:44:44;;;;;;;4.20;4.00;;;15.10;1.00;;;;;;6260375;28;20594;-54
2022/09/10 00:48:01;;;;;;;4.47;4.27;;;15.10;1.00;;;;;;6259353;28;20238;-55
2022/09/10 00:51:08;;;;;;;4.20;3.90;;;15.00;1.00;;;;;;6275405;28;20737;-53
2022/09/10 00:54:11;;;;;;;4.17;4.03;;;15.00;1.00;;;;;;6284958;28;20596;-55
2022/09/10 00:57:18;;;;;;;4.70;4.40;;;15.00;1.00;;;;;;6270316;28;20233;-55
2022/09/10 01:00:22;;;;;;;5.00;4.60;;;14.90;1.00;;;;;;6262453;28;20260;-55
2022/09/10 01:03:28;;;;;;;5.03;4.73;;;14.90;1.00;;;;;;6275996;28;20225;-55
2022/09/10 01:06:33;;;;;;;4.73;4.53;;;14.90;1.00;;;;;;6277548;28;20240;-54
2022/09/10 01:09:37;;;;;;;4.83;4.47;;;14.90;1.00;;;;;;6284377;28;20237;-55
2022/09/10 01:13:23;;;;;;;5.23;4.93;;;14.80;1.00;;;;;;6284683;28;20761;-53
2022/09/10 01:16:34;;;;;;;5.27;4.87;;;14.80;1.00;;;;;;6259311;28;20241;-55
2022/09/10 01:20:24;;;;;;;5.00;4.70;;;14.80;1.00;;;;;;6268987;28;20233;-55
2022/09/10 01:24:08;;;;;;;5.90;5.50;;;14.70;1.00;;;;;;6259765;28;20479;-55
2022/09/10 01:27:39;;;;;;;4.40;4.20;;;14.70;1.00;;;;;;6242832;28;20602;-56
2022/09/10 01:30:46;;;;;;;4.30;4.10;;;14.70;1.00;;;;;;6274265;28;20244;-55
2022/09/10 01:33:57;;;;;;;7.10;4.57;;;14.70;1.00;;;;;;6282904;28;20233;-55
2022/09/10 01:37:06;;;;;;;4.33;4.00;;;14.70;1.00;;;;;;6261262;28;20237;-54
2022/09/10 01:40:11;;;;;;;3.83;3.70;;;14.70;1.00;;;;;;6259300;28;20238;-53
2022/09/10 01:43:15;;;;;;;3.43;3.27;;;14.70;1.00;;;;;;6259259;28;20238;-55
2022/09/10 01:46:28;;;;;;;5.23;4.90;;;14.70;1.00;;;;;;6274753;28;20701;-55
2022/09/10 01:49:47;;;;;;;4.77;4.47;;;14.60;1.00;;;;;;6264925;28;20276;-54
2022/09/10 01:53:07;;;;;;;7.07;6.37;;;14.60;1.00;;;;;;6269237;28;20245;-54
2022/09/10 01:56:24;;;;;;;6.90;6.37;;;14.60;1.00;;;;;;6274756;28;20234;-54
2022/09/10 01:59:38;;;;;;;7.03;6.60;;;14.60;1.00;;;;;;6268264;28;20234;-55
2022/09/10 02:02:47;;;;;;;6.30;5.77;;;14.60;1.00;;;;;;6261370;28;20612;-55
2022/09/10 02:05:56;;;;;;;6.87;6.23;;;14.60;1.00;;;;;;6275243;28;20698;-55
2022/09/10 02:09:00;;;;;;;6.80;6.30;;;14.60;1.00;;;;;;6279128;28;20244;-54
2022/09/10 02:12:03;;;;;;;8.07;7.33;;;14.60;1.00;;;;;;6285305;28;20468;-54
2022/09/10 02:15:10;;;;;;;7.90;7.17;;;14.60;1.00;;;;;;6289682;28;20717;-53
2022/09/10 02:18:13;;;;;;;7.73;7.20;;;14.50;1.00;;;;;;6274724;28;20283;-54
2022/09/10 02:21:18;;;;;;;6.93;6.50;;;14.50;1.00;;;;;;6274575;28;20244;-55
2022/09/10 02:24:21;;;;;;;7.43;6.90;;;14.50;1.00;;;;;;6258437;28;20237;-55
2022/09/10 02:27:24;;;;;;;7.00;6.57;;;14.40;1.00;;;;;;6258193;28;20234;-54
2022/09/10 02:30:28;;;;;;;8.07;7.17;;;14.40;1.00;;;;;;6258628;28;20234;-53
2022/09/10 02:33:31;;;;;;;6.63;6.23;;;14.40;1.00;;;;;;6268356;28;20659;-55
2022/09/10 02:36:34;;;;;;;6.90;6.40;;;14.30;1.00;;;;;;6275762;28;20487;-55
2022/09/10 02:39:40;;;;;;;8.47;7.30;;;14.30;1.00;;;;;;6273398;28;20291;-55
2022/09/10 02:42:45;;;;;;;8.83;7.90;;;14.30;1.00;;;;;;6258095;28;20269;-54
2022/09/10 02:45:50;;;;;;;7.83;7.33;;;14.30;1.00;;;;;;6262769;28;20240;-55
2022/09/10 02:48:54;;;;;;;8.53;7.77;;;14.20;1.00;;;;;;6274214;28;20796;-55
2022/09/10 02:51:57;;;;;;;10.00;7.30;;;14.20;1.00;;;;;;6274221;28;20244;-54
2022/09/10 02:55:00;;;;;;;8.03;6.40;;;14.10;1.00;;;;;;6287660;28;20292;-54
2022/09/10 02:58:03;;;;;;;6.20;5.63;;;14.20;1.00;;;;;;6280775;28;20906;-55
2022/09/10 03:01:13;;;;;;;6.30;5.47;;;14.20;1.00;;;;;;6264665;28;20313;-55
2022/09/10 03:04:17;;;;;;;5.33;5.00;;;14.10;1.00;;;;;;6282993;28;20237;-55
2022/09/10 03:07:20;;;;;;;5.43;5.07;;;14.10;1.00;;;;;;6292066;28;20543;-54
2022/09/10 03:10:23;;;;;;;4.57;4.13;;;14.10;1.00;;;;;;6290356;28;20233;-56
2022/09/10 03:13:27;;;;;;;4.97;4.60;;;14.10;1.00;;;;;;6285079;28;20627;-55
2022/09/10 03:17:01;;;;;;;4.23;4.07;;;14.10;1.00;;;;;;6288860;28;20244;-55
2022/09/10 03:20:05;;;;;;;4.57;4.23;;;14.10;1.00;;;;;;6286822;28;20601;-55
2022/09/10 03:23:10;;;;;;;4.97;4.43;;;14.10;1.00;;;;;;6288112;28;20241;-55
2022/09/10 03:26:14;;;;;;;4.37;4.07;;;14.00;1.00;;;;;;6288538;28;20232;-53
2022/09/10 03:29:17;;;;;;;3.90;3.80;;;14.00;1.00;;;;;;6281145;28;20245;-55
2022/09/10 03:32:21;;;;;;;4.23;3.90;;;14.10;1.00;;;;;;6264766;28;20241;-55
2022/09/10 03:35:25;;;;;;;5.80;4.27;;;14.10;1.00;;;;;;6280765;28;20226;-54
2022/09/10 03:38:28;;;;;;;6.10;4.10;;;14.00;1.00;;;;;;6280323;28;20229;-55
2022/09/10 03:41:31;;;;;;;3.87;3.67;;;14.00;1.00;;;;;;6280194;28;20624;-54
2022/09/10 03:44:34;;;;;;;4.67;4.33;;;13.90;1.00;;;;;;6282409;28;20241;-55
2022/09/10 03:47:39;;;;;;;3.73;3.53;;;13.90;1.00;;;;;;6279443;28;20717;-55
2022/09/10 03:50:43;;;;;;;5.47;4.03;;;13.90;1.00;;;;;;6278671;28;20245;-54
2022/09/10 03:53:46;;;;;;;3.93;3.67;;;13.90;1.00;;;;;;6282487;28;20233;-55
2022/09/10 03:56:49;;;;;;;4.27;4.00;;;13.90;1.00;;;;;;6278559;28;20714;-60
2022/09/10 03:59:51;;;;;;;4.40;4.00;;;13.80;1.00;;;;;;6284964;28;20467;-55
2022/09/10 04:02:57;;;;;;;4.30;4.20;;;13.80;1.00;;;;;;6283818;28;20294;-55
2022/09/10 04:06:00;;;;;;;4.70;4.50;;;13.80;1.00;;;;;;6277877;28;20226;-55
2022/09/10 04:09:03;;;;;;;4.70;4.30;;;13.70;1.00;;;;;;6281063;28;20233;-54
2022/09/10 04:12:10;;;;;;;4.33;4.03;;;13.70;1.00;;;;;;6279517;28;20236;-54
2022/09/10 04:15:13;;;;;;;4.10;3.80;;;13.70;1.00;;;;;;6281334;28;20225;-54
2022/09/10 04:18:17;;;;;;;3.93;3.77;;;13.70;1.00;;;;;;6278706;28;20237;-55
2022/09/10 04:21:22;;;;;;;3.93;3.83;;;13.70;1.00;;;;;;6281821;28;20240;-54
2022/09/10 04:24:25;;;;;;;4.13;3.93;;;13.70;1.00;;;;;;6282512;28;20467;-55
2022/09/10 04:27:27;;;;;;;4.33;4.20;;;13.70;1.00;;;;;;6278341;28;20361;-55
2022/09/10 04:30:31;;;;;;;4.10;3.77;;;13.60;1.00;;;;;;6281831;28;20236;-55
2022/09/10 04:33:35;;;;;;;3.83;3.73;;;13.60;1.00;;;;;;6276586;28;20237;-54
2022/09/10 04:36:38;;;;;;;4.00;3.70;;;13.60;1.00;;;;;;6279127;28;20229;-55
2022/09/10 04:39:42;;;;;;;4.10;3.90;;;13.60;1.00;;;;;;6281847;28;20478;-54
2022/09/10 04:42:45;;;;;;;3.63;3.53;;;13.60;1.00;;;;;;6282284;28;20523;-55
2022/09/10 04:45:48;;;;;;;4.63;4.40;;;13.60;1.00;;;;;;6282987;28;20238;-54
2022/09/10 04:48:53;;;;;;;3.93;3.73;;;13.60;1.00;;;;;;6280269;28;20777;-55
2022/09/10 04:51:55;;;;;;;5.07;4.87;;;13.60;1.00;;;;;;6278449;28;20233;-55
2022/09/10 04:54:58;;;;;;;4.90;4.57;;;13.60;1.00;;;;;;6274266;28;20237;-55
2022/09/10 04:58:01;;;;;;;5.07;4.87;;;13.50;1.00;;;;;;6269654;28;20237;-55
2022/09/10 05:01:07;;;;;;;4.93;4.73;;;13.50;1.00;;;;;;6282434;28;20243;-54
2022/09/10 05:04:12;;;;;;;4.87;4.63;;;13.50;1.00;;;;;;6273718;28;20226;-55
2022/09/10 05:07:15;;;;;;;4.93;4.73;;;13.50;1.00;;;;;;6280708;28;20229;-55
2022/09/10 05:10:19;;;;;;;4.73;4.30;;;13.50;1.00;;;;;;6272261;28;20252;-55
2022/09/10 05:13:23;;;;;;;4.33;4.13;;;13.50;1.00;;;;;;6277763;28;20239;-55
2022/09/10 05:16:26;;;;;;;5.27;4.77;;;13.50;1.00;;;;;;6276587;28;20234;-54
2022/09/10 05:19:31;;;;;;;4.70;4.40;;;13.60;1.00;;;;;;6266272;28;20233;-54
2022/09/10 05:22:34;;;;;;;4.87;4.40;;;13.60;1.00;;;;;;6274329;28;20234;-59
2022/09/10 05:25:43;;;;;;;4.80;4.33;;;13.70;1.00;;;;;;6271922;28;20764;-54
2022/09/10 05:28:46;;;;;;;4.23;4.03;;;13.70;1.00;;;;;;6274748;28;20237;-54
2022/09/10 05:31:49;;;;;;;4.47;4.17;;;13.70;1.00;;;;;;6271584;28;20233;-55
2022/09/10 05:34:53;;;;;;;4.87;4.57;;;13.70;1.00;;;;;;6276084;28;20237;-55
2022/09/10 05:37:57;;;;;;;4.43;4.23;;;13.80;1.00;;;;;;6272864;28;20240;-55
2022/09/10 05:41:00;;;;;;;5.10;4.70;;;13.80;1.00;;;;;;6270008;28;20238;-54
2022/09/10 05:44:03;;;;;;;4.57;4.40;;;13.80;1.00;;;;;;6282079;28;20248;-55
2022/09/10 05:47:06;;;;;;;4.70;4.40;;;13.80;1.00;;;;;;6272757;28;20237;-55
2022/09/10 05:50:11;;;;;;;4.27;4.07;;;13.90;1.00;;;;;;6265175;28;20237;-54
2022/09/10 05:53:15;;;;;;;4.30;3.93;;;14.00;1.00;;;;;;6271239;28;20230;-55
2022/09/10 05:56:19;;;;;;;3.97;3.77;;;14.00;1.00;;;;;;6276503;28;20239;-56
2022/09/10 05:59:23;;;;;;;5.77;4.20;;;14.10;1.00;;;;;;6278744;28;20714;-55
2022/09/10 06:02:26;;;;;;;4.47;4.17;;;14.10;1.00;;;;;;6281964;28;20346;-55
2022/09/10 06:05:31;;;;;;;4.07;3.77;;;14.30;1.00;;;;;;6273697;28;20488;-54
2022/09/10 06:08:35;;;;;;;4.03;3.77;;;14.40;1.00;;;;;;6270602;28;20232;-55
2022/09/10 06:11:38;;;;;;;3.47;3.37;;;14.60;1.00;;;;;;6280719;28;20245;-55
2022/09/10 06:14:41;;;;;;;3.53;3.27;;;14.60;1.00;;;;;;6280845;28;20233;-55
2022/09/10 06:17:44;;;;;;;3.67;3.43;;;14.70;1.00;;;;;;6279336;28;20229;-60
2022/09/10 06:20:50;;;;;;;3.50;3.33;;;15.00;1.00;;;;;;6277920;28;20244;-55
2022/09/10 06:23:53;;;;;;;4.70;3.30;;;15.20;1.00;;;;;;6275430;28;20230;-54
2022/09/10 06:26:58;;;;;;;3.17;3.07;;;15.60;1.00;;;;;;6270520;28;20240;-56
2022/09/10 06:30:01;;;;;;;5.77;3.07;;;15.90;1.00;;;;;;6272368;28;20567;-54
2022/09/10 06:33:03;;;;;;;5.43;3.90;;;15.80;1.00;;;;;;6267934;28;20467;-56
2022/09/10 06:36:10;;;;;;;4.10;3.70;;;15.80;1.00;;;;;;6268591;28;20241;-55
2022/09/10 06:39:13;;;;;;;3.37;3.07;;;15.70;1.00;;;;;;6277373;28;20471;-55
2022/09/10 06:42:15;;;;;;;3.83;3.53;;;15.70;1.00;;;;;;6279253;28;20233;-55
2022/09/10 06:45:18;;;;;;;3.30;3.10;;;15.70;1.00;;;;;;6277837;28;20241;-54
2022/09/10 06:48:26;;;;;;;4.60;3.00;;;15.80;1.00;;;;;;6272074;28;20226;-56
2022/09/10 06:51:51;;;;;;;8.03;3.17;;;16.20;1.00;;;;;;6262947;28;20269;-55
2022/09/10 06:54:55;;;;;;;3.23;3.00;;;16.30;1.00;;;;;;6266610;28;20738;-55
2022/09/10 06:57:59;;;;;;;5.00;2.80;;;16.30;1.00;;;;;;6271881;28;20230;-55
2022/09/10 07:01:13;;;;;;;6.40;3.10;;;16.40;1.00;;;;;;6264797;28;20801;-54
2022/09/10 07:04:16;;;;;;;2.53;2.43;;;16.60;1.00;;;;;;6272774;28;20233;-54
2022/09/10 07:07:21;;;;;;;3.10;2.97;;;16.90;1.00;;;;;;6281704;28;20225;-55
2022/09/10 07:10:23;;;;;;;3.53;3.20;;;16.90;1.00;;;;;;6274901;28;20234;-56
2022/09/10 07:13:26;;;;;;;7.87;3.17;;;16.90;1.00;;;;;;6282158;28;20383;-56
2022/09/10 07:16:29;;;;;;;3.10;2.80;;;16.90;1.00;;;;;;6282776;28;20377;-60
2022/09/10 07:19:35;;;;;;;3.03;2.83;;;16.90;1.00;;;;;;6272255;28;20237;-56
2022/09/10 07:22:39;;;;;;;3.17;2.97;;;17.00;1.00;;;;;;6280958;28;20237;-54
2022/09/10 07:25:42;;;;;;;2.90;2.70;;;17.10;1.00;;;;;;6275125;28;20234;-53
2022/09/10 07:28:46;;;;;;;3.20;2.90;;;17.30;1.00;;;;;;6278021;28;20740;-55
2022/09/10 07:31:49;;;;;;;2.70;2.50;;;17.30;1.00;;;;;;6282996;28;20229;-55
2022/09/10 07:34:54;;;;;;;3.70;3.37;;;17.30;1.00;;;;;;6278954;28;20226;-55
2022/09/10 07:37:59;;;;;;;3.03;2.80;;;17.20;1.00;;;;;;6281885;28;20236;-54
2022/09/10 07:41:02;;;;;;;2.87;2.60;;;17.30;1.00;;;;;;6273678;28;20237;-56
2022/09/10 07:44:08;;;;;;;2.70;2.60;;;17.30;1.00;;;;;;6278058;28;20225;-54
2022/09/10 07:47:11;;;;;;;2.50;2.33;;;17.40;1.00;;;;;;6283555;28;20249;-56
2022/09/10 07:50:14;;;;;;;4.03;2.83;;;17.40;1.00;;;;;;6272515;28;20233;-55
2022/09/10 07:53:19;;;;;;;2.83;2.67;;;17.50;1.00;;;;;;6285134;28;20814;-55
2022/09/10 07:56:23;;;;;;;3.87;3.00;;;17.60;1.00;;;;;;6284938;28;20233;-55
2022/09/10 07:59:27;;;;;;;4.40;3.00;;;17.60;1.00;;;;;;6272022;28;20238;-55
2022/09/10 08:02:30;;;;;;;3.90;2.50;;;17.70;1.00;;;;;;6279289;28;20619;-56
2022/09/10 08:05:35;;;;;;;3.07;2.90;;;17.80;1.00;;;;;;6278299;28;20714;-55
2022/09/10 08:08:40;;;;;;;4.63;3.10;;;17.80;1.00;;;;;;6277565;28;20241;-55
2022/09/10 08:11:44;;;;;;;2.90;2.70;;;17.90;1.00;;;;;;6274383;28;20498;-54
2022/09/10 08:14:47;;;;;;;3.73;2.70;;;18.10;1.00;;;;;;6283948;28;20339;-54
2022/09/10 08:17:49;;;;;;;4.50;2.77;;;18.20;1.00;;;;;;6278170;28;20233;-55
2022/09/10 08:20:54;;;;;;;4.20;2.53;;;18.20;1.00;;;;;;6272273;28;20726;-54
2022/09/10 08:23:58;;;;;;;2.93;2.73;;;18.30;1.00;;;;;;6284027;28;20241;-54
2022/09/10 08:27:02;;;;;;;2.77;2.67;;;18.30;1.00;;;;;;6278858;28;20619;-56
2022/09/10 08:30:06;;;;;;;3.27;2.73;;;18.30;1.00;;;;;;6282465;28;20248;-56
2022/09/10 08:33:11;;;;;;;2.70;2.50;;;18.40;1.00;;;;;;6282927;28;20233;-55
2022/09/10 08:36:17;;;;;;;4.07;2.97;;;18.50;1.00;;;;;;6277964;28;20233;-54
2022/09/10 08:39:21;;;;;;;2.47;2.27;;;18.60;1.00;;;;;;6278139;28;20237;-56
2022/09/10 08:42:28;;;;;;;2.63;2.40;;;18.60;1.00;;;;;;6279562;28;20245;-55
2022/09/10 08:45:33;;;;;;;2.73;2.47;;;18.70;1.00;;;;;;6275743;28;20267;-55
2022/09/10 08:48:39;;;;;;;2.33;2.23;;;18.80;1.00;;;;;;6276109;28;20235;-55
2022/09/10 08:51:46;;;;;;;3.23;2.67;;;18.90;1.00;;;;;;6274541;28;20242;-55
2022/09/10 08:54:59;;;;;;;4.53;2.33;;;19.00;1.00;;;;;;6268014;28;20225;-56
2022/09/10 08:58:10;;;;;;;2.77;2.67;;;19.10;1.00;;;;;;6279424;28;20343;-54
2022/09/10 09:01:20;;;;;;;2.93;2.03;;;19.20;1.00;;;;;;6282901;28;20249;-55
2022/09/10 09:04:35;;;;;;;2.47;2.27;;;19.40;1.00;;;;;;6266692;28;20763;-56
2022/09/10 09:07:47;;;;;;;2.30;2.20;;;19.50;1.00;;;;;;6267653;28;20806;-56
2022/09/10 09:10:58;;;;;;;1.90;1.90;;;19.50;1.00;;;;;;6269405;28;20727;-58
2022/09/10 09:14:14;;;;;;;2.17;2.07;;;19.50;1.00;;;;;;6275998;28;20240;-54
2022/09/10 09:17:37;;;;;;;2.33;2.20;;;19.70;1.00;;;;;;6282365;28;20280;-55
2022/09/10 09:20:45;;;;;;;1.80;1.80;;;19.80;1.00;;;;;;6277681;28;20237;-55
2022/09/10 09:23:54;;;;;;;2.40;2.30;;;19.90;1.00;;;;;;6277175;28;20230;-55
2022/09/10 09:27:19;;;;;;;2.03;1.93;;;20.00;1.00;;;;;;6277281;28;20709;-54
2022/09/10 09:30:25;;;;;;;2.07;1.97;;;20.10;1.00;;;;;;6273796;28;20237;-56
2022/09/10 09:33:30;;;;;;;2.00;1.90;;;20.20;1.00;;;;;;6272620;28;20225;-55
2022/09/10 09:36:39;;;;;;;2.23;2.20;;;20.30;1.00;;;;;;6281982;28;20233;-55
2022/09/10 09:39:53;;;;;;;2.60;2.50;;;20.50;1.00;;;;;;6279573;28;20759;-56
2022/09/10 09:43:09;;;;;;;1.97;1.87;;;20.50;1.00;;;;;;6282000;28;20230;-55
2022/09/10 09:46:17;;;;;;;1.90;1.80;;;20.40;1.00;;;;;;6281582;28;20237;-55
2022/09/10 09:49:20;;;;;;;1.90;1.90;;;20.50;1.00;;;;;;6272846;28;20237;-55
2022/09/10 09:52:31;;;;;;;2.07;1.97;;;20.60;1.00;;;;;;6265875;28;20245;-55
2022/09/10 09:55:41;;;;;;;1.93;1.83;;;20.70;1.00;;;;;;6281639;28;20297;-56
2022/09/10 09:58:50;;;;;;;2.17;2.07;;;20.70;1.00;;;;;;6273106;28;20295;-55
2022/09/10 10:02:00;;;;;;;1.93;1.83;;;20.80;1.00;;;;;;6279225;28;20360;-55
2022/09/10 10:05:06;;;;;;;4.83;1.80;;;20.90;1.00;;;;;;6269928;28;20646;-57
2022/09/10 10:08:29;;;;;;;1.53;1.53;;;20.90;1.00;;;;;;6260256;28;20244;-55
2022/09/10 10:11:51;;;;;;;4.80;1.97;;;20.90;1.00;;;;;;6264684;28;20487;-55
2022/09/10 10:14:56;;;;;;;2.13;2.03;;;20.90;1.00;;;;;;6273978;28;20351;-56
2022/09/10 10:18:00;;;;;;;1.83;1.70;;;21.00;1.00;;;;;;6269702;28;20233;-55
2022/09/10 10:21:15;;;;;;;2.00;1.90;;;21.10;1.00;;;;;;6278162;28;20259;-56
2022/09/10 10:24:31;;;;;;;2.20;1.73;;;21.30;1.00;;;;;;6278186;28;20845;-56
2022/09/10 10:27:36;;;;;;;2.10;2.00;;;21.60;1.00;;;;;;6273432;28;20241;-56
2022/09/10 10:30:41;;;;;;;2.03;1.70;;;21.70;1.00;;;;;;6255934;28;20721;-55
2022/09/10 10:33:52;;;;;;;2.20;2.10;;;21.60;1.00;;;;;;6266207;28;20605;-55
2022/09/10 10:37:06;;;;;;;1.90;1.80;;;21.50;1.00;;;;;;6276189;28;20260;-56
2022/09/10 10:40:18;;;;;;;1.97;1.87;;;21.40;1.00;;;;;;6278209;28;20241;-55
2022/09/10 10:43:31;;;;;;;2.00;1.90;;;21.20;1.00;;;;;;6280285;28;20233;-62
2022/09/10 10:46:47;;;;;;;1.90;1.80;;;21.20;1.00;;;;;;6279747;28;20263;-55
2022/09/10 10:49:59;;;;;;;2.53;2.33;;;21.40;1.00;;;;;;6275785;28;20229;-56
2022/09/10 10:53:39;;;;;;;1.60;1.50;;;21.70;1.00;;;;;;6275886;28;20241;-56
2022/09/10 10:56:55;;;;;;;1.93;1.83;;;22.00;1.00;;;;;;6265605;28;20229;-57
2022/09/10 11:00:03;;;;;;;1.87;1.73;;;22.20;1.00;;;;;;6268730;28;20252;-56
2022/09/10 11:03:16;;;;;;;1.80;1.70;;;22.30;1.00;;;;;;6281294;28;20265;-56
2022/09/10 11:06:22;;;;;;;2.40;2.30;;;22.40;1.00;;;;;;6285315;28;20259;-56
2022/09/10 11:09:30;;;;;;;2.53;1.73;;;22.30;1.00;;;;;;6282153;28;20233;-55
2022/09/10 11:12:40;;;;;;;2.33;2.13;;;22.20;1.00;;;;;;6271693;28;20245;-56
2022/09/10 11:15:48;;;;;;;2.63;1.60;;;22.00;1.00;;;;;;6271827;28;20245;-56
2022/09/10 11:18:57;;;;;;;2.63;1.90;;;21.80;1.00;;;;;;6272361;28;20684;-58
2022/09/10 11:22:06;;;;;;;1.73;1.63;;;21.80;1.00;;;;;;6276292;28;20241;-55
2022/09/10 11:25:18;;;;;;;1.80;1.80;;;21.90;1.00;;;;;;6276320;28;20588;-56
2022/09/10 11:28:26;;;;;;;2.10;2.03;;;22.30;1.00;;;;;;6283499;28;20229;-55
2022/09/10 11:31:34;;;;;;;1.70;1.70;;;22.40;1.00;;;;;;6280982;28;20495;-55
2022/09/10 11:34:57;;;;;;;1.97;1.87;;;22.50;1.00;;;;;;6269641;28;20268;-57
2022/09/10 11:38:11;;;;;;;1.90;1.80;;;22.60;1.00;;;;;;6283041;28;20559;-57
2022/09/10 11:41:18;;;;;;;1.60;1.57;;;22.80;1.00;;;;;;6273547;28;20850;-56
2022/09/10 11:44:42;;;;;;;2.50;2.17;;;23.20;1.00;;;;;;6284494;28;20276;-57
2022/09/10 11:47:49;;;;;;;2.33;1.70;;;23.40;1.00;;;;;;6279807;28;20234;-56
2022/09/10 11:51:00;;;;;;;2.00;1.90;;;23.40;1.00;;;;;;6278311;28;20237;-54
2022/09/10 11:54:05;;;;;;;1.93;1.90;;;23.30;1.00;;;;;;6269132;28;20233;-57
2022/09/10 11:57:14;;;;;;;2.20;2.10;;;23.50;1.00;;;;;;6275692;28;20226;-56
2022/09/10 12:00:18;;;;;;;1.90;1.90;;;23.80;1.00;;;;;;6279618;28;20252;-59
2022/09/10 12:04:00;;;;;;;3.33;2.30;;;24.00;1.00;;;;;;6276692;28;20744;-51
2022/09/10 12:07:18;;;;;;;2.00;1.90;;;24.00;1.00;;;;;;6271756;28;20231;-52
2022/09/10 12:10:31;;;;;;;2.13;2.03;;;24.20;1.00;;;;;;6276353;28;20477;-61
2022/09/10 12:13:38;;;;;;;2.43;1.90;;;24.10;1.00;;;;;;6281124;28;20248;-59
2022/09/10 12:16:45;;;;;;;1.90;1.80;;;24.30;1.00;;;;;;6281175;28;20631;-59
2022/09/10 12:19:51;;;;;;;1.77;1.70;;;24.20;1.00;;;;;;6268818;28;20225;-56
2022/09/10 12:22:56;;;;;;;2.00;1.90;;;23.90;1.00;;;;;;6281813;28;20228;-56
2022/09/10 12:26:02;;;;;;;9.80;2.10;;;23.60;1.00;;;;;;6279764;28;20227;-57
2022/09/10 12:29:05;;;;;;;2.50;2.30;;;23.30;1.00;;;;;;6282626;28;20228;-55
2022/09/10 12:32:28;;;;;;;2.07;1.70;;;23.10;1.00;;;;;;6276949;28;20733;-56
2022/09/10 12:35:47;;;;;;;1.90;1.73;;;23.00;1.00;;;;;;6267427;28;20242;-57
2022/09/10 12:38:55;;;;;;;2.13;1.80;;;22.80;1.00;;;;;;6265741;28;20241;-57
2022/09/10 12:42:23;;;;;;;2.87;1.93;;;22.60;1.00;;;;;;6271155;28;20230;-57
2022/09/10 12:46:04;;;;;;;1.60;1.60;;;22.40;1.00;;;;;;6279836;28;20230;-57
2022/09/10 12:49:12;;;;;;;1.87;1.70;;;22.30;1.00;;;;;;6279494;28;20253;-60
2022/09/10 12:52:23;;;;;;;1.80;1.77;;;22.20;1.00;;;;;;6277548;28;20249;-57
2022/09/10 12:55:43;;;;;;;2.10;2.10;;;22.00;1.00;;;;;;6271877;28;20239;-58
2022/09/10 12:58:59;;;;;;;2.37;2.27;;;21.90;1.00;;;;;;6274821;28;20238;-57
2022/09/10 13:02:03;;;;;;;1.80;1.80;;;21.80;1.00;;;;;;6273335;28;20247;-58
2022/09/10 13:05:21;;;;;;;2.10;2.00;;;21.80;1.00;;;;;;6271193;28;20241;-56
2022/09/10 13:08:27;;;;;;;1.87;1.80;;;21.90;1.00;;;;;;6272530;28;20233;-58
2022/09/10 13:11:36;;;;;;;2.33;2.17;;;22.10;1.00;;;;;;6263432;28;20253;-56
2022/09/10 13:14:44;;;;;;;1.50;1.50;;;22.10;1.00;;;;;;6267635;28;20650;-57
2022/09/10 13:18:21;;;;;;;1.80;1.70;;;22.00;1.00;;;;;;6271604;28;20249;-56
2022/09/10 13:21:50;;;;;;;1.50;1.50;;;22.00;1.00;;;;;;6276875;28;20423;-58
2022/09/10 13:25:02;;;;;;;2.73;2.00;;;21.90;1.00;;;;;;6275367;28;20229;-58
2022/09/10 13:28:39;;;;;;;1.70;1.60;;;21.80;1.00;;;;;;6268929;28;20230;-56
2022/09/10 13:31:46;;;;;;;1.40;1.30;;;21.70;1.00;;;;;;6274050;28;20256;-57
2022/09/10 13:35:41;;;;;;;1.80;1.70;;;21.70;1.00;;;;;;6266818;28;20226;-56
2022/09/10 13:39:11;;;;;;;1.63;1.53;;;21.60;1.00;;;;;;6274949;28;20288;-57
2022/09/10 13:42:30;;;;;;;1.43;1.43;;;21.60;1.00;;;;;;6269367;28;20603;-56
2022/09/10 13:45:40;;;;;;;1.60;1.50;;;21.60;1.00;;;;;;6270758;28;20235;-57
2022/09/10 13:48:57;;;;;;;1.53;1.47;;;21.70;1.00;;;;;;6262260;28;20246;-58
2022/09/10 13:52:04;;;;;;;1.80;1.80;;;21.80;1.00;;;;;;6265926;28;20813;-60
2022/09/10 13:55:08;;;;;;;1.60;1.50;;;21.80;1.00;;;;;;6266598;28;20768;-59
2022/09/10 13:58:15;;;;;;;1.93;1.77;;;21.80;1.00;;;;;;6269471;28;20234;-61
2022/09/10 14:01:18;;;;;;;2.40;2.30;;;21.70;1.00;;;;;;6273709;28;20242;-58
2022/09/10 14:04:24;;;;;;;9.73;1.83;;;21.60;1.00;;;;;;6263900;28;20323;-59
2022/09/10 14:07:28;;;;;;;1.73;1.70;;;21.60;1.00;;;;;;6277997;28;20339;-58
2022/09/10 14:10:47;;;;;;;1.63;1.53;;;21.50;1.00;;;;;;6272947;28;20624;-56
2022/09/10 14:13:54;;;;;;;2.03;1.80;;;21.50;1.00;;;;;;6273215;28;20238;-56
2022/09/10 14:17:02;;;;;;;3.60;2.03;;;21.50;1.00;;;;;;6277222;28;21107;-58
2022/09/10 14:20:17;;;;;;;4.40;1.83;;;21.50;1.00;;;;;;6261290;28;20625;-58
2022/09/10 14:23:20;;;;;;;4.83;2.10;;;21.40;1.00;;;;;;6265767;28;20245;-57
2022/09/10 14:26:25;;;;;;;2.70;2.13;;;21.40;1.00;;;;;;6270625;28;20257;-56
2022/09/10 14:29:29;;;;;;;4.33;2.10;;;21.30;1.00;;;;;;6273485;28;20229;-57
2022/09/10 14:32:35;;;;;;;2.33;2.07;;;21.20;1.00;;;;;;6280124;28;20245;-58
2022/09/10 14:35:41;;;;;;;4.20;2.10;;;21.20;1.00;;;;;;6284354;28;20237;-59
2022/09/10 14:38:54;;;;;;;2.00;1.90;;;21.10;1.00;;;;;;6277617;28;20306;-58
2022/09/10 14:42:26;;;;;;;2.20;2.10;;;21.10;1.00;;;;;;6282183;28;20237;-58
2022/09/10 14:45:40;;;;;;;1.77;1.73;;;21.00;1.00;;;;;;6281537;28;20547;-58
2022/09/10 14:49:03;;;;;;;1.90;1.80;;;21.00;1.00;;;;;;6277348;28;20237;-58
2022/09/10 14:52:07;;;;;;;2.00;1.90;;;20.90;1.00;;;;;;6277807;28;20232;-57
2022/09/10 14:55:12;;;;;;;1.60;1.60;;;20.80;1.00;;;;;;6275161;28;20683;-58
2022/09/10 14:58:17;;;;;;;1.90;1.90;;;20.80;1.00;;;;;;6279546;28;20612;-57
2022/09/10 15:01:20;;;;;;;1.63;1.57;;;20.60;1.00;;;;;;6278029;28;20472;-59
2022/09/10 15:04:25;;;;;;;2.50;2.30;;;20.60;1.00;;;;;;6281872;28;20237;-57
2022/09/10 15:07:30;;;;;;;2.50;1.70;;;20.50;1.00;;;;;;6280410;28;20233;-61
2022/09/10 15:10:33;;;;;;;2.53;1.80;;;20.50;1.00;;;;;;6276823;28;20556;-58
2022/09/10 15:13:41;;;;;;;1.70;1.60;;;20.50;1.00;;;;;;6278082;28;20244;-59
2022/09/10 15:16:44;;;;;;;1.93;1.83;;;20.60;1.00;;;;;;6274874;28;20332;-59
2022/09/10 15:19:48;;;;;;;1.90;1.80;;;20.60;1.00;;;;;;6283643;28;20230;-58
2022/09/10 15:23:01;;;;;;;1.80;1.70;;;20.70;1.00;;;;;;6280013;28;20244;-59
2022/09/10 15:26:06;;;;;;;1.70;1.60;;;20.90;1.00;;;;;;6273178;28;20226;-59
2022/09/10 15:29:09;;;;;;;1.50;1.50;;;21.10;1.00;;;;;;6275110;28;20481;-58
2022/09/10 15:32:12;;;;;;;2.20;2.10;;;21.20;1.00;;;;;;6278257;28;21845;-58
2022/09/10 15:35:15;;;;;;;1.77;1.70;;;21.30;1.00;;;;;;6277209;28;20250;-58
2022/09/10 15:38:20;;;;;;;2.10;2.00;;;21.30;1.00;;;;;;6282777;28;20244;-59
2022/09/10 15:41:26;;;;;;;2.43;2.00;;;21.30;1.00;;;;;;6275811;28;20245;-59
2022/09/10 15:44:32;;;;;;;1.93;1.83;;;21.20;1.00;;;;;;6285510;28;20615;-57
2022/09/10 15:47:35;;;;;;;2.60;2.50;;;21.20;1.00;;;;;;6278886;28;20233;-58
2022/09/10 15:50:38;;;;;;;2.03;2.03;;;21.20;1.00;;;;;;6281987;28;20241;-58
2022/09/10 15:53:44;;;;;;;2.20;2.10;;;21.30;1.00;;;;;;6285108;28;20749;-59
2022/09/10 15:56:48;;;;;;;2.20;2.20;;;21.20;1.00;;;;;;6274044;28;20730;-58
2022/09/10 15:59:53;;;;;;;2.60;2.40;;;21.30;1.00;;;;;;6276680;28;20233;-58
2022/09/10 16:02:56;;;;;;;2.50;2.40;;;21.30;1.00;;;;;;6270418;28;20317;-57
2022/09/10 16:06:03;;;;;;;2.53;2.33;;;21.20;1.00;;;;;;6280450;28;20319;-59
2022/09/10 16:09:09;;;;;;;2.43;2.40;;;21.20;1.00;;;;;;6287078;28;20248;-58
2022/09/10 16:12:12;;;;;;;2.87;2.67;;;21.10;1.00;;;;;;6270894;28;20250;-59
2022/09/10 16:15:15;;;;;;;2.93;2.63;;;21.10;1.00;;;;;;6279603;28;20653;-58
2022/09/10 16:18:18;;;;;;;2.00;1.90;;;21.10;1.00;;;;;;6278357;28;20621;-57
2022/09/10 16:21:22;;;;;;;2.20;2.10;;;21.00;1.00;;;;;;6276712;28;20245;-58
2022/09/10 16:24:27;;;;;;;2.33;2.23;;;21.00;1.00;;;;;;6279051;28;20237;-58
2022/09/10 16:27:30;;;;;;;2.60;2.50;;;21.00;1.00;;;;;;6268062;28;20241;-57
2022/09/10 16:30:33;;;;;;;2.43;2.20;;;21.00;1.00;;;;;;6264767;28;20245;-58
2022/09/10 16:33:36;;;;;;;2.57;2.30;;;21.00;1.00;;;;;;6275523;28;20233;-58